Time;durP1;ratioP1;P1;durP2;ratioP2;P2;SDS_P1;SDS_P2;PMS_P1;PMS_P2;Temp;Humidity;BMP_temperature;BMP_pressure;BME280_temperature;BME280_humidity;BME280_pressure;Samples;Min_cycle;Max_cycle;Signal;HPM_P1;HPM_P2
2021/11/20 00:02:09;;;;;;;32.97;21.10;;;11.70;99.90;;;;;;5045598;28;20495;-84
2021/11/20 00:04:38;;;;;;;30.80;20.43;;;11.70;99.90;;;;;;5044758;28;20820;-84
2021/11/20 00:07:05;;;;;;;27.73;19.70;;;11.80;99.90;;;;;;5047479;28;20448;-83
2021/11/20 00:09:32;;;;;;;34.10;21.40;;;11.70;99.90;;;;;;5047550;28;20535;-84
2021/11/20 00:12:03;;;;;;;30.53;21.53;;;11.70;99.90;;;;;;5046654;28;20452;-83
2021/11/20 00:14:31;;;;;;;30.13;21.03;;;11.70;99.90;;;;;;5048708;28;20505;-83
2021/11/20 00:17:01;;;;;;;27.20;17.63;;;11.70;99.90;;;;;;5047232;28;20551;-84
2021/11/20 00:19:29;;;;;;;29.00;20.33;;;11.70;99.90;;;;;;5041804;28;20460;-83
2021/11/20 00:21:59;;;;;;;31.50;19.23;;;11.70;99.90;;;;;;5039953;28;20551;-84
2021/11/20 00:24:29;;;;;;;30.53;20.90;;;11.70;99.90;;;;;;5040111;28;20551;-83
2021/11/20 00:26:57;;;;;;;33.27;22.70;;;11.80;99.90;;;;;;5028231;28;20452;-84
2021/11/20 00:29:38;;;;;;;32.57;23.23;;;11.80;99.90;;;;;;5041605;28;20931;-84
2021/11/20 00:32:10;;;;;;;29.87;20.50;;;11.80;99.90;;;;;;5021048;28;20515;-84
2021/11/20 00:34:40;;;;;;;29.20;19.90;;;11.80;99.90;;;;;;5038023;28;20551;-84
2021/11/20 00:37:07;;;;;;;32.73;21.70;;;11.70;99.90;;;;;;5040802;28;20891;-84
2021/11/20 00:39:35;;;;;;;33.63;21.80;;;11.80;99.90;;;;;;5040542;28;20471;-84
2021/11/20 00:42:03;;;;;;;33.17;21.10;;;11.70;99.90;;;;;;5041342;28;22275;-86
2021/11/20 00:44:31;;;;;;;30.70;20.47;;;11.70;99.90;;;;;;5038877;28;20456;-83
2021/11/20 00:46:58;;;;;;;33.33;22.20;;;11.70;99.90;;;;;;5037257;28;20462;-82
2021/11/20 00:49:25;;;;;;;34.43;23.30;;;11.70;99.90;;;;;;5037673;28;20448;-83
2021/11/20 00:51:53;;;;;;;33.23;22.50;;;11.80;99.90;;;;;;5035992;28;21024;-82
2021/11/20 00:54:20;;;;;;;30.13;21.87;;;11.80;99.90;;;;;;5038956;28;20462;-83
2021/11/20 00:56:48;;;;;;;28.57;19.40;;;11.80;99.90;;;;;;5040152;28;20489;-83
2021/11/20 00:59:15;;;;;;;31.33;20.87;;;11.80;99.90;;;;;;5040340;28;20478;-84
2021/11/20 01:01:46;;;;;;;29.80;20.63;;;11.70;99.90;;;;;;5040928;28;20474;-83
2021/11/20 01:04:14;;;;;;;27.67;18.93;;;11.70;99.90;;;;;;5042456;28;20455;-84
2021/11/20 01:06:42;;;;;;;32.97;21.50;;;11.70;99.90;;;;;;5042273;28;20448;-84
2021/11/20 01:09:13;;;;;;;32.03;18.33;;;11.70;99.90;;;;;;5041701;28;20547;-83
2021/11/20 01:11:42;;;;;;;27.30;19.37;;;11.70;99.90;;;;;;5041588;28;20543;-84
2021/11/20 01:14:11;;;;;;;28.10;20.10;;;11.70;99.90;;;;;;5038922;28;20452;-81
2021/11/20 01:16:39;;;;;;;30.07;18.87;;;11.70;99.90;;;;;;5039104;28;20491;-83
2021/11/20 01:19:08;;;;;;;26.83;18.20;;;11.70;99.90;;;;;;5046058;28;20461;-80
2021/11/20 01:21:36;;;;;;;29.40;20.50;;;11.70;99.90;;;;;;5040729;28;20554;-82
2021/11/20 01:24:04;;;;;;;33.70;19.27;;;11.70;99.90;;;;;;5038749;28;21075;-83
2021/11/20 01:26:31;;;;;;;26.77;18.60;;;11.60;99.90;;;;;;5039486;28;20445;-84
2021/11/20 01:28:59;;;;;;;30.40;20.87;;;11.60;99.90;;;;;;5038479;28;20446;-83
2021/11/20 01:31:29;;;;;;;33.47;20.20;;;11.60;99.90;;;;;;5036150;28;20457;-82
2021/11/20 01:33:57;;;;;;;29.00;20.20;;;11.70;99.90;;;;;;5037481;28;20502;-83
2021/11/20 01:36:28;;;;;;;27.93;19.83;;;11.70;99.90;;;;;;5038327;28;20484;-84
2021/11/20 01:38:58;;;;;;;27.03;17.60;;;11.60;99.90;;;;;;5038013;28;20456;-84
2021/11/20 01:41:27;;;;;;;31.70;18.80;;;11.60;99.90;;;;;;5037444;28;20451;-83
2021/11/20 01:43:57;;;;;;;28.33;18.23;;;11.60;99.90;;;;;;5038577;28;20487;-84
2021/11/20 01:46:27;;;;;;;30.63;19.80;;;11.60;99.90;;;;;;5038663;28;20986;-82
2021/11/20 01:48:59;;;;;;;32.77;20.33;;;11.60;99.90;;;;;;5035767;28;20825;-82
2021/11/20 01:51:30;;;;;;;32.67;21.47;;;11.60;99.90;;;;;;5038767;28;20461;-84
2021/11/20 01:54:08;;;;;;;32.10;19.07;;;11.60;99.90;;;;;;5039585;28;21074;-84
2021/11/20 01:56:43;;;;;;;33.53;20.13;;;11.60;99.90;;;;;;5039519;28;20485;-84
2021/11/20 01:59:19;;;;;;;34.47;20.10;;;11.50;99.90;;;;;;5040712;28;20450;-83
2021/11/20 02:01:50;;;;;;;31.10;21.30;;;11.50;99.90;;;;;;5039982;28;20447;-83
2021/11/20 02:04:22;;;;;;;28.33;19.77;;;11.60;99.90;;;;;;5039089;28;20462;-83
2021/11/20 02:06:58;;;;;;;28.00;19.30;;;11.60;99.90;;;;;;5038160;28;20456;-83
2021/11/20 02:09:30;;;;;;;27.27;18.60;;;11.60;99.90;;;;;;5039185;28;20805;-82
2021/11/20 02:12:03;;;;;;;27.83;20.17;;;11.50;99.90;;;;;;5038287;28;20463;-83
2021/11/20 02:14:31;;;;;;;29.10;20.20;;;11.50;99.90;;;;;;5040453;28;20447;-83
2021/11/20 02:17:01;;;;;;;28.87;18.67;;;11.60;99.90;;;;;;5021634;28;20493;-83
2021/11/20 02:19:31;;;;;;;29.93;20.63;;;11.60;99.90;;;;;;5032854;28;20448;-83
2021/11/20 02:22:05;;;;;;;29.60;19.77;;;11.50;99.90;;;;;;5041843;28;20447;-84
2021/11/20 02:24:31;;;;;;;34.27;21.57;;;11.60;99.90;;;;;;5045251;28;20467;-84
2021/11/20 02:26:57;;;;;;;30.00;20.70;;;11.60;99.90;;;;;;5043819;28;20462;-83
2021/11/20 02:29:26;;;;;;;30.30;20.23;;;11.60;99.90;;;;;;5044702;28;20448;-84
2021/11/20 02:31:56;;;;;;;32.30;21.50;;;11.60;99.90;;;;;;5040933;28;20850;-83
2021/11/20 02:34:25;;;;;;;32.00;20.77;;;11.60;99.90;;;;;;5040001;28;20467;-82
2021/11/20 02:36:52;;;;;;;32.20;22.20;;;11.60;99.90;;;;;;5042010;28;20494;-83
2021/11/20 02:39:21;;;;;;;31.63;20.97;;;11.60;99.90;;;;;;5041854;28;20463;-83
2021/11/20 02:41:50;;;;;;;26.73;19.10;;;11.50;99.90;;;;;;5040124;28;20562;-83
2021/11/20 02:44:19;;;;;;;31.47;20.23;;;11.50;99.90;;;;;;5038298;28;20465;-83
2021/11/20 02:46:48;;;;;;;33.30;21.10;;;11.50;99.90;;;;;;5040719;28;20448;-82
2021/11/20 02:49:17;;;;;;;29.20;19.30;;;11.50;99.90;;;;;;5040997;28;20462;-83
2021/11/20 02:51:47;;;;;;;32.93;22.07;;;11.50;99.90;;;;;;5060238;28;20467;-83
2021/11/20 02:54:17;;;;;;;30.13;21.50;;;11.50;99.90;;;;;;5051500;28;20474;-83
2021/11/20 02:56:47;;;;;;;31.40;20.10;;;11.50;99.90;;;;;;5040647;28;20476;-83
2021/11/20 02:59:15;;;;;;;35.17;22.43;;;11.50;99.90;;;;;;5031522;28;20999;-83
2021/11/20 03:01:44;;;;;;;30.60;20.30;;;11.50;99.90;;;;;;5040400;28;20447;-83
2021/11/20 03:04:12;;;;;;;32.93;23.80;;;11.40;99.90;;;;;;5040728;28;20453;-83
2021/11/20 03:06:41;;;;;;;35.87;24.93;;;11.40;99.90;;;;;;5041497;28;20446;-83
2021/11/20 03:09:10;;;;;;;32.13;22.73;;;11.40;99.90;;;;;;5041246;28;20459;-83
2021/11/20 03:11:37;;;;;;;33.23;21.80;;;11.40;99.90;;;;;;5039913;28;20459;-83
2021/11/20 03:14:06;;;;;;;36.50;23.33;;;11.40;99.90;;;;;;5042518;28;20479;-83
2021/11/20 03:16:35;;;;;;;33.73;23.90;;;11.40;99.90;;;;;;5042330;28;20572;-82
2021/11/20 03:19:01;;;;;;;29.40;19.73;;;11.40;99.90;;;;;;5041020;28;20546;-83
2021/11/20 03:21:28;;;;;;;36.47;23.43;;;11.40;99.90;;;;;;5049548;28;20443;-82
2021/11/20 03:23:59;;;;;;;31.93;20.40;;;11.50;99.90;;;;;;5045408;28;20847;-83
2021/11/20 03:26:26;;;;;;;29.60;20.60;;;11.40;99.90;;;;;;5038734;28;20459;-83
2021/11/20 03:28:53;;;;;;;34.60;20.70;;;11.50;99.90;;;;;;5039572;28;20452;-83
2021/11/20 03:31:20;;;;;;;30.60;21.97;;;11.50;99.90;;;;;;5037196;28;20464;-82
2021/11/20 03:33:47;;;;;;;35.10;24.10;;;11.50;99.90;;;;;;5037408;28;20482;-83
2021/11/20 03:36:14;;;;;;;35.90;23.43;;;11.40;99.90;;;;;;5039271;28;20494;-83
2021/11/20 03:38:41;;;;;;;31.97;22.33;;;11.40;99.90;;;;;;5039751;28;20455;-83
2021/11/20 03:41:13;;;;;;;32.07;21.93;;;11.50;99.90;;;;;;5039634;28;20957;-83
2021/11/20 03:43:40;;;;;;;33.20;22.30;;;11.40;99.90;;;;;;5040240;28;20550;-83
2021/11/20 03:46:07;;;;;;;31.67;22.10;;;11.50;99.90;;;;;;5039575;28;20445;-83
2021/11/20 03:48:34;;;;;;;32.90;22.23;;;11.40;99.90;;;;;;5037159;28;20798;-83
2021/11/20 03:51:01;;;;;;;35.10;24.90;;;11.40;99.90;;;;;;5038614;28;20452;-83
2021/11/20 03:53:28;;;;;;;32.80;21.80;;;11.30;99.90;;;;;;5038437;28;20854;-82
2021/11/20 03:55:55;;;;;;;31.67;19.70;;;11.20;99.90;;;;;;5039192;28;20459;-81
2021/11/20 03:58:23;;;;;;;39.23;22.37;;;11.30;99.90;;;;;;5040677;28;20447;-81
2021/11/20 04:00:54;;;;;;;27.83;20.40;;;11.40;99.90;;;;;;5037664;28;20961;-82
2021/11/20 04:03:21;;;;;;;32.93;20.00;;;11.40;99.90;;;;;;5038743;28;20464;-82
2021/11/20 04:05:50;;;;;;;28.60;19.83;;;11.40;99.90;;;;;;5038540;28;20452;-82
2021/11/20 04:08:17;;;;;;;29.73;21.53;;;11.40;99.90;;;;;;5038441;28;20469;-83
2021/11/20 04:10:45;;;;;;;30.20;20.20;;;11.40;99.90;;;;;;5037951;28;20864;-83
2021/11/20 04:13:12;;;;;;;27.57;18.70;;;11.40;99.90;;;;;;5039117;28;20468;-83
2021/11/20 04:15:40;;;;;;;30.57;20.83;;;11.50;99.90;;;;;;5038508;28;20450;-83
2021/11/20 04:18:08;;;;;;;27.67;19.53;;;11.30;99.90;;;;;;5039220;28;20482;-82
2021/11/20 04:20:35;;;;;;;26.53;19.33;;;11.40;99.90;;;;;;5037095;28;21060;-82
2021/11/20 04:23:04;;;;;;;29.87;18.90;;;11.40;99.90;;;;;;5038237;28;20991;-83
2021/11/20 04:25:31;;;;;;;29.80;19.50;;;11.40;99.90;;;;;;5037844;28;20466;-83
2021/11/20 04:27:58;;;;;;;29.47;21.27;;;11.40;99.90;;;;;;5039310;28;20947;-82
2021/11/20 04:30:25;;;;;;;29.80;20.23;;;11.30;99.90;;;;;;5036940;28;20459;-83
2021/11/20 04:32:54;;;;;;;27.03;18.77;;;11.30;99.90;;;;;;5036700;28;20474;-83
2021/11/20 04:35:24;;;;;;;29.97;19.60;;;11.30;99.90;;;;;;5037950;28;20455;-83
2021/11/20 04:37:51;;;;;;;28.50;19.70;;;11.30;99.90;;;;;;5040130;28;20494;-84
2021/11/20 04:40:19;;;;;;;30.80;18.63;;;11.30;99.90;;;;;;5039458;28;20458;-84
2021/11/20 04:42:47;;;;;;;27.63;18.43;;;11.30;99.90;;;;;;5038794;28;20480;-84
2021/11/20 04:45:17;;;;;;;29.83;20.90;;;11.30;99.90;;;;;;5035300;28;20452;-83
2021/11/20 04:47:44;;;;;;;37.47;23.67;;;11.40;99.90;;;;;;5037037;28;20519;-84
2021/11/20 04:50:13;;;;;;;30.10;20.13;;;11.30;99.90;;;;;;5036098;28;20532;-83
2021/11/20 04:52:41;;;;;;;38.20;22.33;;;11.20;99.90;;;;;;5037275;28;20545;-83
2021/11/20 04:55:11;;;;;;;29.03;20.17;;;11.30;99.90;;;;;;5039068;28;20467;-87
2021/11/20 04:57:37;;;;;;;32.97;21.30;;;11.30;99.90;;;;;;5038395;28;20549;-83
2021/11/20 05:00:07;;;;;;;30.00;20.27;;;11.30;99.90;;;;;;5038172;28;20456;-83
2021/11/20 05:02:34;;;;;;;35.00;23.73;;;11.40;99.90;;;;;;5039365;28;20477;-83
2021/11/20 05:05:01;;;;;;;32.80;22.70;;;11.40;99.90;;;;;;5037322;28;20989;-82
2021/11/20 05:07:29;;;;;;;32.60;21.70;;;11.40;99.90;;;;;;5037745;28;20443;-84
2021/11/20 05:09:56;;;;;;;36.47;26.30;;;11.40;99.90;;;;;;5039668;28;20459;-83
2021/11/20 05:12:23;;;;;;;38.30;24.87;;;11.40;99.90;;;;;;5037381;28;20476;-83
2021/11/20 05:14:50;;;;;;;31.80;22.13;;;11.40;99.90;;;;;;5039286;28;20461;-83
2021/11/20 05:17:17;;;;;;;36.80;23.10;;;11.40;99.90;;;;;;5036701;28;20489;-83
2021/11/20 05:19:43;;;;;;;37.97;24.60;;;11.40;99.90;;;;;;5039519;28;20444;-83
2021/11/20 05:22:10;;;;;;;34.27;23.17;;;11.30;99.90;;;;;;5038704;28;20530;-82
2021/11/20 05:24:38;;;;;;;31.63;21.40;;;11.30;99.90;;;;;;5048676;28;20528;-81
2021/11/20 05:27:06;;;;;;;33.20;22.43;;;11.30;99.90;;;;;;5042401;28;20447;-83
2021/11/20 05:29:39;;;;;;;36.80;24.00;;;11.30;99.90;;;;;;5037755;28;20486;-83
2021/11/20 05:32:07;;;;;;;35.43;24.47;;;11.30;99.90;;;;;;5036218;28;20484;-82
2021/11/20 05:34:34;;;;;;;35.47;24.03;;;11.30;99.90;;;;;;5038474;28;20468;-82
2021/11/20 05:37:01;;;;;;;40.67;27.17;;;11.30;99.90;;;;;;5038086;28;20489;-82
2021/11/20 05:39:28;;;;;;;34.70;23.20;;;11.30;99.90;;;;;;5038450;28;20456;-81
2021/11/20 05:41:56;;;;;;;36.27;24.03;;;11.30;99.90;;;;;;5036926;28;20462;-81
2021/11/20 05:44:23;;;;;;;37.10;23.37;;;11.30;99.90;;;;;;5038736;28;20452;-83
2021/11/20 05:46:51;;;;;;;35.67;24.33;;;11.30;99.90;;;;;;5038238;28;20470;-82
2021/11/20 05:49:18;;;;;;;38.20;22.97;;;11.40;99.90;;;;;;5034795;28;20464;-81
2021/11/20 05:51:45;;;;;;;38.07;25.00;;;11.40;99.90;;;;;;5036541;28;20456;-81
2021/11/20 05:54:12;;;;;;;34.20;22.03;;;11.40;99.90;;;;;;5037541;28;20467;-81
2021/11/20 05:56:39;;;;;;;35.40;21.33;;;11.40;99.90;;;;;;5041329;28;20448;-81
2021/11/20 05:59:08;;;;;;;31.13;22.17;;;11.50;99.90;;;;;;5041289;28;20879;-81
2021/11/20 06:01:34;;;;;;;36.90;23.50;;;11.40;99.90;;;;;;5067112;22;20511;-83
2021/11/20 06:04:01;;;;;;;37.57;24.17;;;11.30;99.90;;;;;;5058014;28;20448;-85
2021/11/20 06:06:28;;;;;;;36.87;23.00;;;11.40;99.90;;;;;;5056637;28;20453;-82
2021/11/20 06:08:55;;;;;;;37.77;25.33;;;11.40;99.90;;;;;;5055798;28;20478;-84
2021/11/20 06:11:22;;;;;;;34.53;21.90;;;11.40;99.90;;;;;;5036572;28;20471;-84
2021/11/20 06:13:49;;;;;;;38.13;24.57;;;11.40;99.90;;;;;;5036984;28;20455;-83
2021/11/20 06:16:17;;;;;;;38.17;23.77;;;11.40;99.90;;;;;;5052713;28;20798;-83
2021/11/20 06:18:44;;;;;;;37.00;22.80;;;11.40;99.90;;;;;;5058160;28;20497;-84
2021/11/20 06:21:10;;;;;;;36.30;24.03;;;11.40;99.90;;;;;;5055535;28;20471;-84
2021/11/20 06:23:39;;;;;;;32.30;20.83;;;11.40;99.90;;;;;;5058255;28;20452;-84
2021/11/20 06:26:07;;;;;;;43.00;25.80;;;11.40;99.90;;;;;;5057732;28;20983;-84
2021/11/20 06:28:35;;;;;;;39.73;23.20;;;11.30;99.90;;;;;;5055830;28;20465;-83
2021/11/20 06:31:05;;;;;;;39.83;24.30;;;11.30;99.90;;;;;;5058650;28;20462;-83
2021/11/20 06:33:33;;;;;;;38.43;22.30;;;11.30;99.90;;;;;;5059171;28;20478;-84
2021/11/20 06:36:01;;;;;;;37.17;23.90;;;11.30;99.90;;;;;;5059824;28;20461;-84
2021/11/20 06:38:30;;;;;;;39.17;22.83;;;11.30;99.90;;;;;;5058589;28;20488;-83
2021/11/20 06:40:59;;;;;;;35.73;22.57;;;11.30;99.90;;;;;;5057752;28;20454;-82
2021/11/20 06:43:29;;;;;;;41.20;23.10;;;11.30;99.90;;;;;;5058799;28;20455;-83
2021/11/20 06:45:58;;;;;;;37.83;22.57;;;11.30;99.90;;;;;;5058033;28;20955;-83
2021/11/20 06:48:26;;;;;;;47.70;26.20;;;11.20;99.90;;;;;;5058520;28;20474;-84
2021/11/20 06:50:54;;;;;;;38.43;25.40;;;11.20;99.90;;;;;;5060711;28;20539;-84
2021/11/20 06:53:23;;;;;;;36.67;22.77;;;11.20;99.90;;;;;;5062631;28;20462;-84
2021/11/20 06:55:50;;;;;;;39.30;22.50;;;11.30;99.90;;;;;;5061722;28;20464;-84
2021/11/20 06:58:32;;;;;;;36.73;22.30;;;11.30;99.90;;;;;;5065043;28;20538;-83
2021/11/20 07:01:02;;;;;;;36.10;21.30;;;11.20;99.90;;;;;;5062791;28;20550;-81
2021/11/20 07:03:32;;;;;;;31.93;20.57;;;11.20;99.90;;;;;;5061706;28;20496;-84
2021/11/20 07:06:05;;;;;;;32.10;21.63;;;11.20;99.90;;;;;;5061040;28;20531;-85
2021/11/20 07:08:32;;;;;;;36.00;21.37;;;11.30;99.90;;;;;;5074047;28;20520;-83
2021/11/20 07:11:00;;;;;;;33.07;21.27;;;11.30;99.90;;;;;;5074093;28;20432;-86
2021/11/20 07:13:30;;;;;;;29.90;19.97;;;11.30;99.90;;;;;;5063068;28;20458;-86
2021/11/20 07:15:58;;;;;;;31.87;20.40;;;11.30;99.90;;;;;;5053365;28;20456;-85
2021/11/20 07:18:25;;;;;;;35.73;22.27;;;11.30;99.90;;;;;;5049727;28;20491;-84
2021/11/20 07:20:55;;;;;;;34.17;21.87;;;11.40;99.90;;;;;;5053647;28;20472;-84
2021/11/20 07:23:24;;;;;;;34.00;22.10;;;11.30;99.90;;;;;;5050657;28;20457;-84
2021/11/20 07:25:51;;;;;;;33.23;20.10;;;11.40;99.90;;;;;;5053262;28;20952;-85
2021/11/20 07:28:18;;;;;;;33.73;20.10;;;11.40;99.90;;;;;;5052992;28;20454;-85
2021/11/20 07:30:45;;;;;;;34.07;21.47;;;11.40;99.90;;;;;;5053880;28;20514;-85
2021/11/20 07:33:12;;;;;;;31.27;20.43;;;11.40;99.90;;;;;;5054285;28;20457;-82
2021/11/20 07:35:45;;;;;;;30.43;19.93;;;11.40;99.90;;;;;;5053197;28;20444;-85
2021/11/20 07:38:16;;;;;;;34.00;21.10;;;11.40;99.90;;;;;;5052415;28;21060;-86
2021/11/20 07:40:45;;;;;;;32.07;21.27;;;11.50;99.90;;;;;;5048217;28;20490;-85
2021/11/20 07:43:15;;;;;;;35.43;22.27;;;11.50;99.90;;;;;;5048981;28;20606;-84
2021/11/20 07:45:42;;;;;;;36.20;24.90;;;11.50;99.90;;;;;;5048428;28;21309;-84
2021/11/20 07:48:12;;;;;;;32.77;20.40;;;11.50;99.90;;;;;;5049296;28;20445;-85
2021/11/20 07:50:39;;;;;;;35.40;22.07;;;11.40;99.90;;;;;;5047933;28;20449;-83
2021/11/20 07:53:06;;;;;;;31.73;20.07;;;11.50;99.90;;;;;;5049921;28;20464;-82
2021/11/20 07:55:34;;;;;;;37.67;25.00;;;11.50;99.90;;;;;;5048184;28;20450;-84
2021/11/20 07:58:02;;;;;;;32.40;21.57;;;11.40;99.90;;;;;;5051924;28;20500;-82
2021/11/20 08:00:30;;;;;;;31.60;20.23;;;11.40;99.90;;;;;;5058275;28;20462;-83
2021/11/20 08:02:57;;;;;;;32.17;20.47;;;11.50;99.90;;;;;;5058375;28;20493;-84
2021/11/20 08:05:27;;;;;;;33.30;20.17;;;11.50;99.90;;;;;;5058654;28;20453;-85
2021/11/20 08:07:54;;;;;;;39.47;23.07;;;11.60;99.90;;;;;;5057254;28;20580;-85
2021/11/20 08:10:22;;;;;;;32.27;20.63;;;11.50;99.90;;;;;;5057333;28;20465;-82
2021/11/20 08:12:49;;;;;;;34.83;20.87;;;11.60;99.90;;;;;;5058835;28;20467;-84
2021/11/20 08:15:18;;;;;;;31.57;19.47;;;11.60;99.90;;;;;;5058314;28;20459;-83
2021/11/20 08:17:45;;;;;;;32.10;20.90;;;11.40;99.90;;;;;;5058128;28;20491;-83
2021/11/20 08:20:15;;;;;;;31.07;19.57;;;11.50;99.90;;;;;;5057572;28;20966;-83
2021/11/20 08:22:42;;;;;;;32.87;20.47;;;11.50;99.90;;;;;;5057636;28;21004;-83
2021/11/20 08:25:12;;;;;;;34.27;22.57;;;11.50;99.90;;;;;;5058247;28;20458;-84
2021/11/20 08:27:38;;;;;;;35.87;20.17;;;11.50;99.90;;;;;;5058359;28;20446;-84
2021/11/20 08:30:08;;;;;;;34.80;21.80;;;11.60;99.90;;;;;;5058843;28;20557;-85
2021/11/20 08:32:36;;;;;;;33.00;19.83;;;11.60;99.90;;;;;;5058780;28;20479;-83
2021/11/20 08:35:04;;;;;;;34.70;21.20;;;11.70;99.90;;;;;;5059412;28;20452;-84
2021/11/20 08:37:33;;;;;;;33.70;20.30;;;11.70;99.90;;;;;;5056414;28;20455;-83
2021/11/20 08:40:00;;;;;;;36.30;22.77;;;11.70;99.90;;;;;;5057570;28;20971;-84
2021/11/20 08:42:27;;;;;;;36.73;21.47;;;11.60;99.90;;;;;;5058743;28;20902;-84
2021/11/20 08:44:55;;;;;;;34.27;21.93;;;11.60;99.90;;;;;;5058116;28;20443;-84
2021/11/20 08:47:21;;;;;;;30.80;19.73;;;11.70;99.90;;;;;;5054468;28;20448;-84
2021/11/20 08:49:50;;;;;;;32.37;20.60;;;11.60;99.90;;;;;;5057809;28;20454;-83
2021/11/20 08:52:17;;;;;;;33.80;19.90;;;11.70;99.90;;;;;;5058710;28;20469;-85
2021/11/20 08:54:44;;;;;;;32.90;20.07;;;11.70;99.90;;;;;;5058990;28;20445;-84
2021/11/20 08:57:11;;;;;;;36.60;20.37;;;11.70;99.90;;;;;;5058001;28;20455;-82
2021/11/20 08:59:39;;;;;;;35.27;21.33;;;11.80;99.90;;;;;;5057686;28;20491;-84
2021/11/20 09:02:12;;;;;;;39.30;22.30;;;11.70;99.90;;;;;;5057145;28;20992;-82
2021/11/20 09:04:43;;;;;;;35.13;22.10;;;11.70;99.90;;;;;;5057445;28;20452;-85
2021/11/20 09:07:16;;;;;;;36.40;21.90;;;11.80;99.90;;;;;;5056468;28;20950;-83
2021/11/20 09:09:48;;;;;;;39.43;24.50;;;11.80;99.90;;;;;;5055249;28;20969;-82
2021/11/20 09:12:19;;;;;;;41.70;23.70;;;11.70;99.90;;;;;;5054838;28;20897;-84
2021/11/20 09:14:49;;;;;;;38.40;23.53;;;11.70;99.90;;;;;;5055555;28;20837;-83
2021/11/20 09:17:17;;;;;;;37.87;23.17;;;11.70;99.90;;;;;;5043519;28;20454;-84
2021/11/20 09:19:45;;;;;;;39.03;23.97;;;11.80;99.90;;;;;;5045277;28;20482;-83
2021/11/20 09:22:13;;;;;;;42.13;26.10;;;11.70;99.90;;;;;;5037043;28;20479;-82
2021/11/20 09:24:43;;;;;;;38.40;24.33;;;11.80;99.90;;;;;;5056209;28;20638;-83
2021/11/20 09:27:11;;;;;;;34.67;21.50;;;11.80;99.90;;;;;;5057572;28;20450;-84
2021/11/20 09:29:39;;;;;;;41.97;24.73;;;11.80;99.90;;;;;;5056901;28;20984;-83
2021/11/20 09:32:08;;;;;;;39.93;24.53;;;11.70;99.90;;;;;;5045057;28;20475;-84
2021/11/20 09:34:35;;;;;;;39.37;23.43;;;11.80;99.90;;;;;;5056217;28;20452;-84
2021/11/20 09:37:03;;;;;;;36.20;23.07;;;11.80;99.90;;;;;;5058336;28;20486;-85
2021/11/20 09:39:34;;;;;;;41.83;23.50;;;11.80;99.90;;;;;;5048750;28;20476;-83
2021/11/20 09:42:24;;;;;;;38.20;22.90;;;11.70;99.90;;;;;;5037430;28;20555;-84
2021/11/20 09:44:56;;;;;;;40.50;24.40;;;11.80;99.90;;;;;;5037169;28;20462;-84
2021/11/20 09:47:28;;;;;;;39.27;23.23;;;11.80;99.90;;;;;;5042808;28;20458;-85
2021/11/20 09:49:59;;;;;;;38.00;24.67;;;11.80;99.90;;;;;;5056017;28;20482;-83
2021/11/20 09:52:25;;;;;;;38.10;24.17;;;11.80;99.90;;;;;;5055894;28;20488;-85
2021/11/20 09:54:53;;;;;;;33.60;20.80;;;12.00;99.90;;;;;;5057068;28;20450;-85
2021/11/20 09:57:28;;;;;;;33.50;21.60;;;12.10;99.90;;;;;;5059196;28;20975;-83
2021/11/20 09:59:59;;;;;;;37.00;22.60;;;12.20;99.90;;;;;;5058897;28;20502;-84
2021/11/20 10:02:29;;;;;;;36.20;22.57;;;12.30;99.90;;;;;;5064452;28;20533;-85
2021/11/20 10:04:59;;;;;;;33.63;21.77;;;12.00;99.90;;;;;;5072303;28;20514;-83
2021/11/20 10:07:30;;;;;;;32.83;20.47;;;12.20;99.90;;;;;;5072327;28;20455;-86
2021/11/20 10:10:03;;;;;;;34.97;21.10;;;12.30;99.90;;;;;;5060620;28;20454;-84
2021/11/20 10:12:37;;;;;;;32.27;22.63;;;12.30;99.90;;;;;;5057514;28;20471;-85
2021/11/20 10:15:11;;;;;;;34.90;21.20;;;12.30;99.90;;;;;;5058688;28;20993;-84
2021/11/20 10:17:42;;;;;;;29.13;20.20;;;12.30;99.90;;;;;;5059052;28;20450;-85
2021/11/20 10:20:26;;;;;;;30.80;21.10;;;12.30;99.90;;;;;;5055078;28;20484;-85
2021/11/20 10:23:04;;;;;;;29.87;19.87;;;12.30;99.90;;;;;;5056563;28;20479;-84
2021/11/20 10:26:15;;;;;;;31.13;21.20;;;12.20;99.90;;;;;;5056725;28;20455;-85
2021/11/20 10:29:02;;;;;;;29.37;21.03;;;12.20;99.90;;;;;;5056459;28;20448;-84
2021/11/20 10:31:33;;;;;;;27.10;18.80;;;12.20;99.90;;;;;;5042653;28;20484;-85
2021/11/20 10:34:14;;;;;;;27.90;20.53;;;12.20;99.90;;;;;;5056886;28;20443;-84
2021/11/20 10:36:49;;;;;;;30.70;20.03;;;12.40;99.90;;;;;;5058675;28;20542;-84
2021/11/20 10:39:19;;;;;;;31.17;19.77;;;12.40;99.90;;;;;;5057342;28;20480;-84
2021/11/20 10:41:54;;;;;;;33.17;20.67;;;12.50;99.90;;;;;;5058172;28;20509;-85
2021/11/20 10:44:24;;;;;;;29.03;19.27;;;12.50;99.90;;;;;;5062246;28;20447;-83
2021/11/20 10:46:59;;;;;;;26.23;16.77;;;12.40;99.90;;;;;;5060232;28;20457;-84
2021/11/20 10:49:52;;;;;;;27.93;19.30;;;12.40;99.90;;;;;;5058674;28;20448;-84
2021/11/20 10:52:34;;;;;;;26.50;18.10;;;12.30;99.90;;;;;;5057631;28;21026;-82
2021/11/20 10:55:17;;;;;;;24.23;16.33;;;12.20;99.90;;;;;;5059138;28;20972;-84
2021/11/20 10:58:33;;;;;;;23.13;15.50;;;12.10;99.90;;;;;;5057644;28;20536;-83
2021/11/20 11:01:36;;;;;;;25.57;15.93;;;12.10;99.90;;;;;;5055667;28;20457;-83
2021/11/20 11:04:17;;;;;;;25.63;15.73;;;12.10;99.90;;;;;;5035931;28;20466;-83
2021/11/20 11:07:01;;;;;;;24.77;16.80;;;12.00;99.90;;;;;;5058009;28;20459;-83
2021/11/20 11:09:36;;;;;;;23.17;16.13;;;12.00;99.90;;;;;;5057690;28;20447;-85
2021/11/20 11:12:10;;;;;;;34.03;16.63;;;11.80;99.90;;;;;;5056598;28;20945;-84
2021/11/20 11:15:11;;;;;;;23.20;15.67;;;11.80;99.90;;;;;;5057771;28;20951;-83
2021/11/20 11:17:55;;;;;;;27.07;17.07;;;11.90;99.90;;;;;;5060132;28;20436;-83
2021/11/20 11:20:50;;;;;;;28.90;24.60;;;12.00;99.90;;;;;;5056065;28;21083;-82
2021/11/20 11:23:24;;;;;;;24.17;16.17;;;12.00;99.90;;;;;;5058753;28;20832;-84
2021/11/20 11:25:57;;;;;;;25.60;14.90;;;12.10;99.90;;;;;;5058707;28;20447;-84
2021/11/20 11:28:34;;;;;;;19.70;13.60;;;12.10;99.90;;;;;;5059206;28;20515;-84
2021/11/20 11:31:16;;;;;;;19.10;14.53;;;12.10;99.90;;;;;;5040853;28;20448;-85
2021/11/20 11:33:46;;;;;;;23.83;15.03;;;12.20;99.90;;;;;;5048750;28;20442;-85
2021/11/20 11:36:20;;;;;;;23.17;15.27;;;12.20;99.90;;;;;;5061547;28;20451;-84
2021/11/20 11:39:11;;;;;;;19.60;13.57;;;12.10;99.90;;;;;;5060462;28;20495;-84
2021/11/20 11:41:42;;;;;;;19.97;15.03;;;12.10;99.90;;;;;;5046567;28;20493;-83
2021/11/20 11:44:13;;;;;;;21.30;14.20;;;12.10;99.90;;;;;;5060451;28;20478;-84
2021/11/20 11:46:55;;;;;;;21.20;14.20;;;12.10;99.90;;;;;;5060034;28;20446;-84
2021/11/20 11:49:47;;;;;;;22.40;14.00;;;12.10;99.90;;;;;;5061176;28;20447;-83
2021/11/20 11:52:46;;;;;;;24.70;15.50;;;12.00;99.90;;;;;;5065969;28;20479;-82
2021/11/20 11:55:27;;;;;;;22.07;15.53;;;12.00;99.90;;;;;;5071281;28;20457;-82
2021/11/20 11:58:07;;;;;;;26.90;17.47;;;14.30;99.90;;;;;;5063664;28;20448;-80
2021/11/20 12:00:39;;;;;;;23.10;16.30;;;11.90;99.90;;;;;;5056441;28;20866;-81
2021/11/20 12:03:31;;;;;;;23.53;17.70;;;11.80;99.90;;;;;;5067509;22;20498;-80
2021/11/20 12:06:18;;;;;;;22.30;17.33;;;11.80;99.90;;;;;;5058291;28;20446;-81
2021/11/20 12:08:48;;;;;;;26.03;17.43;;;11.80;99.90;;;;;;5057601;28;20529;-80
2021/11/20 12:11:17;;;;;;;28.60;19.17;;;11.90;99.90;;;;;;5053020;28;20831;-79
2021/11/20 12:13:49;;;;;;;27.13;19.17;;;11.80;99.90;;;;;;5055435;28;20897;-80
2021/11/20 12:16:44;;;;;;;26.37;19.90;;;11.70;99.90;;;;;;5054254;28;20977;-80
2021/11/20 12:19:30;;;;;;;22.90;16.10;;;11.80;99.90;;;;;;5050927;28;20995;-79
2021/11/20 12:22:00;;;;;;;25.20;17.80;;;11.80;99.90;;;;;;5055039;28;20814;-80
2021/11/20 12:24:40;;;;;;;21.93;16.00;;;11.90;99.90;;;;;;5055876;28;20450;-80
2021/11/20 12:27:22;;;;;;;24.97;15.47;;;11.90;99.90;;;;;;5059984;28;20461;-81
2021/11/20 12:30:29;;;;;;;21.90;15.90;;;11.90;99.90;;;;;;5055755;28;20455;-81
2021/11/20 12:33:15;;;;;;;23.30;15.50;;;11.90;99.90;;;;;;5056407;28;21017;-81
2021/11/20 12:36:01;;;;;;;22.17;15.87;;;11.90;99.90;;;;;;5054001;28;20459;-79
2021/11/20 12:38:41;;;;;;;22.87;16.10;;;11.80;99.90;;;;;;5054479;28;20451;-79
2021/11/20 12:41:22;;;;;;;27.07;17.30;;;11.80;99.90;;;;;;5052585;28;20455;-79
2021/11/20 12:44:22;;;;;;;25.90;17.10;;;11.90;99.90;;;;;;5054903;28;20485;-79
2021/11/20 12:47:14;;;;;;;23.43;15.97;;;11.90;99.90;;;;;;5055429;28;20449;-80
2021/11/20 12:49:43;;;;;;;22.80;15.90;;;12.00;99.90;;;;;;5053923;28;20448;-79